createdAt,value
2019-02-22T00:03:32.812Z,54.43
2019-02-22T00:07:45.634Z,54.77
2019-02-22T00:11:58.197Z,55.93
2019-02-22T00:16:10.495Z,60.47
2019-02-22T00:20:23.400Z,59.77
2019-02-22T00:24:35.856Z,55.10
2019-02-22T00:28:48.552Z,49.60
2019-02-22T00:33:01.545Z,47.67
2019-02-22T00:37:13.973Z,45.93
2019-02-22T00:41:27.356Z,44.30
2019-02-22T00:45:39.772Z,42.53
2019-02-22T00:49:52.561Z,45.60
2019-02-22T00:54:05.115Z,42.23
2019-02-22T00:58:17.521Z,41.03
2019-02-22T01:02:30.422Z,40.77
2019-02-22T01:06:42.935Z,43.10
2019-02-22T01:10:55.812Z,42.50
2019-02-22T01:15:08.523Z,40.23
2019-02-22T01:19:20.998Z,40.50
2019-02-22T01:23:33.826Z,40.60
2019-02-22T01:27:46.384Z,39.73
2019-02-22T01:32:00.105Z,40.70
2019-02-22T01:36:12.547Z,41.37
2019-02-22T01:40:26.240Z,38.27
2019-02-22T01:44:38.868Z,39.30
2019-02-22T01:48:51.255Z,39.00
2019-02-22T01:53:03.702Z,41.33
2019-02-22T01:57:16.429Z,41.60
2019-02-22T02:01:28.885Z,47.13
2019-02-22T02:05:41.191Z,41.10
2019-02-22T02:09:54.155Z,41.53
2019-02-22T02:14:06.744Z,43.20
2019-02-22T02:18:19.155Z,43.30
2019-02-22T02:22:31.477Z,41.07
2019-02-22T02:26:44.368Z,38.67
2019-02-22T02:30:56.929Z,39.10
2019-02-22T02:35:09.501Z,37.27
2019-02-22T02:39:22.276Z,43.47
2019-02-22T02:43:34.678Z,40.80
2019-02-22T02:47:46.983Z,41.97
2019-02-22T02:51:59.883Z,37.60
2019-02-22T02:56:12.442Z,37.17
2019-02-22T03:00:24.844Z,42.33
2019-02-22T03:04:37.254Z,42.13
2019-02-22T03:08:51.176Z,41.63
2019-02-22T03:13:03.819Z,43.03
2019-02-22T03:17:16.151Z,45.67
2019-02-22T03:21:29.039Z,42.90
2019-02-22T03:25:41.497Z,42.33
2019-02-22T03:29:54.114Z,38.67
2019-02-22T03:34:07.031Z,45.33
2019-02-22T03:38:19.565Z,41.20
2019-02-22T03:42:32.612Z,42.60
2019-02-22T03:46:45.115Z,44.70
2019-02-22T03:50:57.523Z,44.43
2019-02-22T03:55:09.864Z,42.97
2019-02-22T03:59:22.734Z,36.03
2019-02-22T04:03:35.363Z,37.30
2019-02-22T04:07:47.698Z,35.93
2019-02-22T04:12:00.670Z,33.97
2019-02-22T04:16:13.150Z,38.30
2019-02-22T04:20:25.553Z,35.83
2019-02-22T04:24:38.448Z,36.57
2019-02-22T04:28:55.129Z,35.43
2019-02-22T04:33:07.792Z,35.93
2019-02-22T04:37:20.839Z,34.87
2019-02-22T04:41:33.276Z,35.33
2019-02-22T04:45:45.763Z,36.10
2019-02-22T04:49:59.597Z,36.17
2019-02-22T04:54:12.273Z,36.97
2019-02-22T04:58:24.673Z,35.20
2019-02-22T05:02:37.666Z,33.97
2019-02-22T05:06:50.137Z,33.73
2019-02-22T05:11:03.108Z,33.70
2019-02-22T05:15:15.732Z,32.53
2019-02-22T05:19:27.990Z,35.73
2019-02-22T05:23:40.863Z,38.50
2019-02-22T05:27:53.328Z,38.57
2019-02-22T05:32:05.862Z,38.13
2019-02-22T05:36:18.893Z,33.90
2019-02-22T05:40:31.392Z,33.17
2019-02-22T05:44:43.860Z,33.83
2019-02-22T05:48:56.661Z,34.03
2019-02-22T05:53:09.161Z,36.90
2019-02-22T05:57:21.561Z,33.50
2019-02-22T06:01:34.456Z,34.53
2019-02-22T06:05:46.909Z,36.20
2019-02-22T06:10:00.454Z,38.20
2019-02-22T06:14:12.871Z,36.10
2019-02-22T06:18:25.345Z,37.67
2019-02-22T06:22:38.072Z,38.70
2019-02-22T06:26:50.521Z,38.20
2019-02-22T06:31:03.128Z,41.33
2019-02-22T06:35:15.941Z,34.73
2019-02-22T06:39:28.380Z,38.13
2019-02-22T06:43:40.694Z,36.97
2019-02-22T06:47:53.545Z,37.30
2019-02-22T06:52:05.941Z,39.63
2019-02-22T06:56:18.241Z,42.37
2019-02-22T07:00:31.135Z,42.57
2019-02-22T07:04:43.702Z,42.47
2019-02-22T07:08:57.340Z,40.83
2019-02-22T07:13:09.788Z,42.33
2019-02-22T07:17:22.640Z,41.80
2019-02-22T07:21:49.156Z,39.53
2019-02-22T07:25:49.152Z,40.90
2019-02-22T07:30:01.946Z,45.50
2019-02-22T07:34:14.530Z,39.17
2019-02-22T07:38:27.451Z,39.17
2019-02-22T07:42:39.947Z,35.53
2019-02-22T07:46:52.253Z,37.80
2019-02-22T07:51:05.222Z,35.93
2019-02-22T07:55:17.812Z,38.93
2019-02-22T07:59:30.223Z,40.87
2019-02-22T08:03:42.632Z,38.13
2019-02-22T08:07:55.425Z,37.33
2019-02-22T08:12:07.881Z,38.83
2019-02-22T08:16:20.188Z,38.93
2019-02-22T08:20:33.078Z,40.37
2019-02-22T08:24:45.609Z,33.97
2019-02-22T08:28:57.852Z,38.53
2019-02-22T08:33:10.880Z,32.47
2019-02-22T08:37:23.890Z,32.40
2019-02-22T08:41:36.637Z,31.93
2019-02-22T08:45:49.156Z,32.07
2019-02-22T08:50:02.039Z,30.20
2019-02-22T08:54:14.566Z,31.43
2019-02-22T08:58:26.912Z,31.60
2019-02-22T09:02:39.696Z,31.10
2019-02-22T09:06:52.498Z,30.70
2019-02-22T09:11:05.350Z,27.17
2019-02-22T09:15:17.798Z,30.97
2019-02-22T09:19:30.795Z,28.43
2019-02-22T09:23:43.364Z,30.33
2019-02-22T09:27:55.821Z,28.57
2019-02-22T09:32:08.667Z,28.07
2019-02-22T09:36:21.166Z,28.10
2019-02-22T09:40:33.988Z,28.10
2019-02-22T09:44:46.548Z,27.73
2019-02-22T09:48:59.557Z,29.20
2019-02-22T09:53:12.106Z,28.97
2019-02-22T09:57:24.591Z,31.77
2019-02-22T10:01:37.428Z,27.77
2019-02-22T10:05:49.961Z,31.10
2019-02-22T10:10:02.957Z,30.00
2019-02-22T10:14:17.769Z,32.87
2019-02-22T10:18:32.601Z,33.03
2019-02-22T10:22:48.282Z,30.50
2019-02-22T10:27:01.058Z,31.17
2019-02-22T10:31:16.242Z,29.27
2019-02-22T10:35:31.528Z,33.50
2019-02-22T10:39:46.255Z,32.93
2019-02-22T10:43:58.808Z,30.87
2019-02-22T10:48:11.112Z,33.93
2019-02-22T10:52:23.901Z,31.80
2019-02-22T10:56:38.976Z,34.67
2019-02-22T11:00:50.371Z,31.30
2019-02-22T11:05:02.615Z,32.57
2019-02-22T11:09:16.115Z,30.83
2019-02-22T11:13:28.849Z,34.80
2019-02-22T11:17:41.310Z,32.50
2019-02-22T11:21:54.288Z,31.57
2019-02-22T11:26:06.848Z,28.37
2019-02-22T11:30:19.253Z,31.97
2019-02-22T11:34:32.281Z,35.07
2019-02-22T11:38:44.886Z,28.23
2019-02-22T11:42:57.229Z,27.23
2019-02-22T11:47:10.034Z,26.77
2019-02-22T11:51:22.471Z,30.13
2019-02-22T11:55:34.885Z,27.60
2019-02-22T11:59:48.061Z,29.43
2019-02-22T12:04:00.501Z,28.97
2019-02-22T12:08:13.324Z,26.00
2019-02-22T12:12:25.777Z,27.57
2019-02-22T12:16:38.188Z,37.33
2019-02-22T12:20:51.080Z,29.20
2019-02-22T12:25:03.542Z,28.63
2019-02-22T12:29:16.515Z,28.37
2019-02-22T12:33:29.067Z,29.27
2019-02-22T12:37:41.558Z,28.00
2019-02-22T12:41:54.493Z,31.27
2019-02-22T12:46:06.932Z,27.07
2019-02-22T12:50:19.832Z,31.37
2019-02-22T12:54:32.392Z,29.97
2019-02-22T12:58:44.806Z,30.23
2019-02-22T13:03:01.852Z,27.27
2019-02-22T13:07:11.853Z,30.27
2019-02-22T13:11:24.677Z,27.70
2019-02-22T13:15:37.228Z,24.87
2019-02-22T13:19:49.658Z,25.13
2019-02-22T13:24:02.536Z,25.97
2019-02-22T13:28:14.994Z,23.73
2019-02-22T13:32:28.044Z,23.13
2019-02-22T13:36:40.820Z,21.77
2019-02-22T13:40:54.374Z,23.40
2019-02-22T13:45:07.124Z,23.07
2019-02-22T13:49:19.842Z,21.70
2019-02-22T13:53:32.244Z,24.40
2019-02-22T13:57:44.656Z,22.87
2019-02-22T14:01:57.992Z,22.13
2019-02-22T14:06:10.309Z,22.80
2019-02-22T14:10:23.714Z,31.03
2019-02-22T14:14:36.068Z,28.60
2019-02-22T14:18:48.848Z,23.30
2019-02-22T14:23:03.510Z,25.83
2019-02-22T14:27:15.160Z,27.33
2019-02-22T14:31:28.045Z,21.90
2019-02-22T14:35:41.360Z,21.33
2019-02-22T14:40:03.183Z,23.67
2019-02-22T14:44:08.560Z,23.47
2019-02-22T14:48:21.030Z,25.63
2019-02-22T14:52:34.013Z,26.40
2019-02-22T14:56:46.573Z,22.07
2019-02-22T15:00:59.080Z,27.13
2019-02-22T15:05:11.978Z,24.90
2019-02-22T15:09:24.436Z,23.37
2019-02-22T15:13:37.047Z,23.40
2019-02-22T15:17:53.067Z,25.50
2019-02-22T15:22:05.461Z,21.50
2019-02-22T15:26:17.875Z,24.10
2019-02-22T15:30:30.822Z,25.77
2019-02-22T15:34:43.336Z,19.43
2019-02-22T15:38:56.291Z,23.33
2019-02-22T15:43:08.983Z,17.77
2019-02-22T15:47:21.335Z,20.93
2019-02-22T15:51:37.835Z,16.80
2019-02-22T15:55:51.244Z,16.07
2019-02-22T16:00:04.233Z,16.50
2019-02-22T16:04:35.737Z,14.27
2019-02-22T16:08:48.625Z,16.73
2019-02-22T16:13:01.072Z,17.10
2019-02-22T16:17:13.447Z,18.40
2019-02-22T16:21:26.073Z,14.70
2019-02-22T16:25:38.535Z,16.80
2019-02-22T16:29:51.527Z,18.87
2019-02-22T16:34:04.076Z,19.77
2019-02-22T16:38:16.493Z,19.87
2019-02-22T16:42:29.440Z,19.83
2019-02-22T16:46:43.251Z,23.20
2019-02-22T16:50:56.924Z,19.00
2019-02-22T16:55:11.302Z,16.33
2019-02-22T16:59:24.037Z,18.80
2019-02-22T17:03:36.755Z,18.90
2019-02-22T17:07:49.504Z,17.40
2019-02-22T17:12:06.372Z,18.80
2019-02-22T17:16:16.618Z,20.63
2019-02-22T17:20:30.504Z,24.47
2019-02-22T17:24:42.991Z,17.23
2019-02-22T17:28:55.979Z,20.07
2019-02-22T17:33:08.541Z,19.40
2019-02-22T17:37:20.951Z,22.33
2019-02-22T17:41:34.009Z,19.60
2019-02-22T17:45:49.655Z,20.27
2019-02-22T17:50:02.833Z,20.17
2019-02-22T17:54:15.328Z,18.90
2019-02-22T17:58:27.745Z,17.30
2019-02-22T18:02:40.533Z,19.67
2019-02-22T18:06:53.001Z,21.83
2019-02-22T18:11:05.977Z,24.90
2019-02-22T18:15:18.535Z,18.53
2019-02-22T18:19:31.971Z,19.27
2019-02-22T18:23:44.488Z,18.87
2019-02-22T18:27:56.806Z,15.83
2019-02-22T18:32:09.588Z,17.20
2019-02-22T18:36:22.174Z,19.60
2019-02-22T18:40:35.305Z,20.33
2019-02-22T18:44:48.028Z,18.23
2019-02-22T18:49:00.887Z,20.33
2019-02-22T18:53:13.414Z,19.63
2019-02-22T18:57:25.763Z,20.03
2019-02-22T19:01:40.334Z,18.97
2019-02-22T19:05:53.354Z,19.27
2019-02-22T19:10:06.557Z,18.73
2019-02-22T19:14:19.114Z,17.13
2019-02-22T19:18:31.520Z,22.97
2019-02-22T19:22:44.490Z,19.80
2019-02-22T19:26:57.071Z,18.97
2019-02-22T19:31:09.381Z,19.50
2019-02-22T19:35:22.173Z,22.30
2019-02-22T19:39:34.749Z,25.20
2019-02-22T19:43:47.201Z,24.20
2019-02-22T19:47:59.969Z,21.87
2019-02-22T19:52:12.480Z,21.13
2019-02-22T19:56:25.437Z,22.87
2019-02-22T20:00:37.948Z,21.37
2019-02-22T20:04:50.344Z,21.10
2019-02-22T20:09:03.337Z,22.83
2019-02-22T20:13:15.902Z,22.93
2019-02-22T20:17:28.308Z,25.47
2019-02-22T20:21:41.095Z,21.93
2019-02-22T20:25:53.825Z,25.33
2019-02-22T20:30:06.751Z,22.93
2019-02-22T20:34:19.201Z,21.13
2019-02-22T20:38:31.633Z,23.27
2019-02-22T20:42:44.573Z,22.10
2019-02-22T20:46:57.061Z,23.47
2019-02-22T20:51:09.475Z,23.87
2019-02-22T20:55:22.265Z,26.00
2019-02-22T20:59:34.789Z,22.60
2019-02-22T21:03:47.608Z,23.13
2019-02-22T21:08:00.174Z,23.47
2019-02-22T21:12:13.159Z,29.93
2019-02-22T21:16:25.712Z,22.93
2019-02-22T21:20:40.445Z,24.37
2019-02-22T21:24:53.008Z,24.33
2019-02-22T21:29:06.068Z,26.13
2019-02-22T21:33:18.648Z,26.43
2019-02-22T21:37:31.099Z,26.13
2019-02-22T21:41:44.436Z,24.70
2019-02-22T21:45:56.889Z,27.30
2019-02-22T21:50:11.518Z,23.30
2019-02-22T21:54:23.904Z,22.73
2019-02-22T21:58:36.789Z,22.60
2019-02-22T22:02:49.320Z,28.97
2019-02-22T22:07:01.668Z,23.53
2019-02-22T22:11:15.099Z,24.70
2019-02-22T22:15:27.415Z,23.33
2019-02-22T22:19:40.324Z,23.80
2019-02-22T22:23:52.767Z,20.17
2019-02-22T22:28:05.236Z,21.53
2019-02-22T22:32:18.025Z,21.63
2019-02-22T22:36:30.524Z,20.37
2019-02-22T22:40:43.619Z,20.73
2019-02-22T22:44:56.225Z,21.80
2019-02-22T22:49:09.061Z,20.20
2019-02-22T22:53:21.623Z,22.30
2019-02-22T22:57:33.931Z,18.97
2019-02-22T23:01:47.026Z,20.03
2019-02-22T23:05:59.537Z,19.93
2019-02-22T23:10:12.367Z,20.60
2019-02-22T23:14:26.376Z,24.30
2019-02-22T23:18:38.947Z,21.43
2019-02-22T23:22:51.656Z,23.00
2019-02-22T23:27:04.112Z,23.23
2019-02-22T23:31:16.519Z,18.03
2019-02-22T23:35:29.482Z,22.53
2019-02-22T23:39:42.039Z,19.20
2019-02-22T23:43:55.037Z,20.50
2019-02-22T23:48:07.535Z,23.50
2019-02-22T23:52:20.628Z,21.80
2019-02-22T23:56:32.966Z,19.30
